createdAt,value
2023-05-22T00:03:09.572Z,14.78
2023-05-22T00:07:13.597Z,14.51
2023-05-22T00:11:16.553Z,14.34
2023-05-22T00:15:19.280Z,14.27
2023-05-22T00:19:23.148Z,14.25
2023-05-22T00:23:27.960Z,14.27
2023-05-22T00:27:30.733Z,14.29
2023-05-22T00:31:33.710Z,14.24
2023-05-22T00:35:37.574Z,14.17
2023-05-22T00:39:40.533Z,14.10
2023-05-22T00:43:45.212Z,14.05
2023-05-22T00:47:48.143Z,14.03
2023-05-22T00:51:50.977Z,14.00
2023-05-22T00:55:54.507Z,13.99
2023-05-22T00:59:57.486Z,14.00
2023-05-22T01:04:02.035Z,13.97
2023-05-22T01:08:07.099Z,13.91
2023-05-22T01:12:34.337Z,13.78
2023-05-22T01:16:49.607Z,13.65
2023-05-22T01:21:30.342Z,13.53
2023-05-22T01:26:09.923Z,13.46
2023-05-22T01:30:50.178Z,13.53
2023-05-22T01:34:56.727Z,13.62
2023-05-22T01:39:01.585Z,13.67
2023-05-22T01:43:04.773Z,13.71
2023-05-22T01:47:08.343Z,13.76
2023-05-22T01:51:23.909Z,13.81
2023-05-22T01:55:35.342Z,13.87
2023-05-22T02:00:15.686Z,13.90
2023-05-22T02:04:23.415Z,13.98
2023-05-22T02:08:27.819Z,14.06
2023-05-22T02:12:31.065Z,14.10
2023-05-22T02:16:33.944Z,14.15
2023-05-22T02:20:36.884Z,14.19
2023-05-22T02:24:44.109Z,14.21
2023-05-22T02:28:46.827Z,14.22
2023-05-22T02:32:49.601Z,14.21
2023-05-22T02:36:52.816Z,14.19
2023-05-22T02:40:55.643Z,14.14
2023-05-22T02:44:58.430Z,14.10
2023-05-22T02:49:01.377Z,14.07
2023-05-22T02:53:04.257Z,14.03
2023-05-22T02:57:08.277Z,13.96
2023-05-22T03:01:11.145Z,13.91
2023-05-22T03:05:20.218Z,13.84
2023-05-22T03:09:23.018Z,13.78
2023-05-22T03:13:25.978Z,13.76
2023-05-22T03:17:28.798Z,13.74
2023-05-22T03:21:31.718Z,13.70
2023-05-22T03:25:34.559Z,13.69
2023-05-22T03:29:37.482Z,13.68
2023-05-22T03:34:32.474Z,13.57
2023-05-22T03:38:35.431Z,13.48
2023-05-22T03:42:38.622Z,13.48
2023-05-22T04:08:33.692Z,14.81
2023-05-22T04:12:41.517Z,14.99
2023-05-22T04:16:44.332Z,15.48
2023-05-22T04:20:47.105Z,16.28
2023-05-22T04:24:50.192Z,17.03
2023-05-22T04:28:53.053Z,17.67
2023-05-22T04:32:56.777Z,18.08
2023-05-22T04:37:00.157Z,18.37
2023-05-22T04:41:08.802Z,18.68
2023-05-22T04:45:13.811Z,19.00
2023-05-22T04:49:16.586Z,19.17
2023-05-22T04:53:33.525Z,19.41
2023-05-22T04:57:36.389Z,19.80
2023-05-22T05:01:39.328Z,20.17
2023-05-22T05:05:42.218Z,20.54
2023-05-22T05:09:44.948Z,21.00
2023-05-22T05:14:58.936Z,21.35
2023-05-22T05:19:01.735Z,21.80
2023-05-22T05:23:04.592Z,22.01
2023-05-22T05:27:07.436Z,22.18
2023-05-22T05:31:10.688Z,22.42
2023-05-22T05:35:13.684Z,22.54
2023-05-22T05:39:16.459Z,22.64
2023-05-22T05:43:20.254Z,22.75
2023-05-22T05:47:24.146Z,22.78
2023-05-22T05:51:27.025Z,22.88
2023-05-22T05:55:29.832Z,23.08
2023-05-22T05:59:32.617Z,23.30
2023-05-22T06:03:35.613Z,23.41
2023-05-22T06:07:39.753Z,23.47
2023-05-22T06:12:12.890Z,23.52
2023-05-22T06:16:15.867Z,23.29
2023-05-22T06:25:10.083Z,22.86
2023-05-22T06:29:12.867Z,22.86
2023-05-22T06:56:05.821Z,23.05
2023-05-22T07:00:25.928Z,23.11
2023-05-22T07:04:28.712Z,23.14
2023-05-22T07:08:31.579Z,23.12
2023-05-22T07:12:34.320Z,23.30
2023-05-22T07:16:37.264Z,23.49
2023-05-22T07:20:40.390Z,23.69
2023-05-22T07:24:43.716Z,23.91
2023-05-22T07:28:46.901Z,24.04
2023-05-22T07:32:51.199Z,24.02
2023-05-22T07:36:54.187Z,24.09
2023-05-22T07:41:02.950Z,24.22
2023-05-22T07:45:06.381Z,24.24
2023-05-22T07:49:10.373Z,24.30
2023-05-22T07:53:38.404Z,24.28
2023-05-22T07:57:41.666Z,24.41
2023-05-22T08:01:44.445Z,24.59
2023-05-22T08:05:47.565Z,24.67
2023-05-22T08:09:50.541Z,24.83
2023-05-22T08:13:53.470Z,24.87
2023-05-22T08:17:56.278Z,24.70
2023-05-22T09:29:25.993Z,24.65
2023-05-22T09:33:29.981Z,24.76
2023-05-22T09:37:35.509Z,24.82
2023-05-22T09:41:39.875Z,24.78
2023-05-22T09:45:42.813Z,24.84
2023-05-22T09:50:25.832Z,25.00
2023-05-22T10:00:23.909Z,25.36
2023-05-22T10:09:26.205Z,25.43
2023-05-22T10:13:30.227Z,25.30
2023-05-22T10:17:34.332Z,25.24
2023-05-22T10:21:39.073Z,25.10
2023-05-22T10:25:52.104Z,24.97
2023-05-22T10:30:13.446Z,24.84
2023-05-22T10:34:28.478Z,24.80
2023-05-22T10:38:40.736Z,24.72
2023-05-22T10:42:44.247Z,24.71
2023-05-22T10:47:17.390Z,24.87
2023-05-22T10:56:02.755Z,25.28
2023-05-22T11:00:15.960Z,25.47
2023-05-22T11:04:19.424Z,25.60
2023-05-22T11:08:25.759Z,25.73
2023-05-22T11:12:31.304Z,25.79
2023-05-22T11:16:34.913Z,25.92
2023-05-22T11:20:40.168Z,25.92
2023-05-22T11:24:43.825Z,26.09
2023-05-22T11:28:51.898Z,26.08
2023-05-22T11:32:55.481Z,25.96
2023-05-22T11:37:00.024Z,25.86
2023-05-22T11:41:03.431Z,25.77
2023-05-22T11:45:07.532Z,25.75
2023-05-22T11:49:13.393Z,26.03
2023-05-22T11:53:16.679Z,26.14
2023-05-22T11:57:20.336Z,26.16
2023-05-22T12:01:23.710Z,26.23
2023-05-22T12:05:26.966Z,26.31
2023-05-22T12:09:30.304Z,26.31
2023-05-22T12:13:33.490Z,26.22
2023-05-22T12:17:40.138Z,25.96
2023-05-22T12:21:44.802Z,25.66
2023-05-22T12:25:48.049Z,25.49
2023-05-22T12:29:52.983Z,25.44
2023-05-22T12:33:57.364Z,25.45
2023-05-22T12:38:00.650Z,25.44
2023-05-22T12:42:04.044Z,25.32
2023-05-22T12:46:07.275Z,25.41
2023-05-22T12:50:10.959Z,25.46
2023-05-22T12:54:15.465Z,25.54
2023-05-22T12:58:18.649Z,25.63
2023-05-22T13:02:22.026Z,25.56
2023-05-22T13:06:27.987Z,25.52
2023-05-22T13:10:33.007Z,25.51
2023-05-22T13:14:39.038Z,25.53
2023-05-22T13:18:42.373Z,25.54
2023-05-22T13:22:46.496Z,25.63
2023-05-22T13:27:23.760Z,25.67
2023-05-22T13:31:27.922Z,25.73
2023-05-22T13:35:32.080Z,25.85
2023-05-22T13:39:36.084Z,25.90
2023-05-22T13:43:40.060Z,25.95
2023-05-22T13:47:45.420Z,25.93
2023-05-22T13:51:49.866Z,25.89
2023-05-22T13:55:55.815Z,25.94
2023-05-22T14:00:02.720Z,25.99
2023-05-22T14:04:07.157Z,25.93
2023-05-22T14:08:12.898Z,25.98
2023-05-22T14:12:17.333Z,26.11
2023-05-22T14:16:23.721Z,26.08
2023-05-22T14:20:27.949Z,26.11
2023-05-22T14:24:32.653Z,26.16
2023-05-22T14:28:37.090Z,26.19
2023-05-22T14:32:42.312Z,26.24
2023-05-22T14:36:46.851Z,26.35
2023-05-22T14:40:54.718Z,26.41
2023-05-22T14:44:59.829Z,26.30
2023-05-22T14:49:03.889Z,26.21
2023-05-22T14:53:07.227Z,26.18
2023-05-22T14:57:10.898Z,26.14
2023-05-22T15:01:14.221Z,25.99
2023-05-22T15:05:17.850Z,25.88
2023-05-22T15:09:21.333Z,25.91
2023-05-22T15:13:24.796Z,25.98
2023-05-22T15:17:28.024Z,26.00
2023-05-22T15:21:31.602Z,25.89
2023-05-22T15:25:36.832Z,25.78
2023-05-22T15:29:47.824Z,25.78
2023-05-22T15:33:51.459Z,25.73
2023-05-22T15:37:54.771Z,25.65
2023-05-22T15:42:05.684Z,25.67
2023-05-22T15:46:12.476Z,25.82
2023-05-22T15:50:17.006Z,25.91
2023-05-22T15:54:20.902Z,25.92
2023-05-22T15:58:24.512Z,25.93
2023-05-22T16:02:28.311Z,25.94
2023-05-22T16:06:33.103Z,25.89
2023-05-22T16:15:22.201Z,25.95
2023-05-22T16:19:25.135Z,25.93
2023-05-22T16:23:28.118Z,25.91
2023-05-22T16:27:31.083Z,25.92
2023-05-22T16:31:35.567Z,25.91
2023-05-22T16:35:38.948Z,25.84
2023-05-22T16:39:45.820Z,25.79
2023-05-22T16:43:49.414Z,25.60
2023-05-22T16:47:56.820Z,25.37
2023-05-22T16:51:59.762Z,25.18
2023-05-22T16:56:02.821Z,24.98
2023-05-22T17:00:06.905Z,24.78
2023-05-22T17:04:14.447Z,24.58
2023-05-22T17:08:17.606Z,24.37
2023-05-22T17:12:31.826Z,24.17
2023-05-22T17:16:34.848Z,23.93
2023-05-22T17:20:38.182Z,23.73
2023-05-22T17:24:41.084Z,23.58
2023-05-22T17:28:43.901Z,23.39
2023-05-22T17:32:48.026Z,23.20
2023-05-22T17:36:51.122Z,23.01
2023-05-22T17:40:53.971Z,22.84
2023-05-22T17:45:25.346Z,22.68
2023-05-22T17:53:50.152Z,22.39
2023-05-22T17:57:53.023Z,22.25
2023-05-22T18:01:56.144Z,22.12
2023-05-22T18:05:59.195Z,21.96
2023-05-22T18:10:02.143Z,21.79
2023-05-22T18:14:04.873Z,21.61
2023-05-22T18:22:35.520Z,21.32
2023-05-22T18:26:38.814Z,21.15
2023-05-22T18:30:44.657Z,20.89
2023-05-22T18:39:07.906Z,20.19
2023-05-22T18:43:10.794Z,19.87
2023-05-22T18:47:13.772Z,19.54
2023-05-22T18:51:22.971Z,19.20
2023-05-22T18:55:25.786Z,18.89
2023-05-22T19:05:04.675Z,18.30
2023-05-22T19:09:11.057Z,18.08
2023-05-22T19:13:13.814Z,17.85
2023-05-22T19:17:16.841Z,17.60
2023-05-22T19:21:20.101Z,17.36
2023-05-22T19:25:23.010Z,17.17
2023-05-22T19:29:25.784Z,16.99
2023-05-22T19:33:31.155Z,16.91
2023-05-22T19:37:34.057Z,16.90
2023-05-22T19:41:37.158Z,16.95
2023-05-22T19:45:40.057Z,16.98
2023-05-22T19:49:42.892Z,17.03
2023-05-22T19:53:45.658Z,17.05
2023-05-22T19:57:48.634Z,17.03
2023-05-22T20:01:53.862Z,16.99
2023-05-22T20:05:57.464Z,17.03
2023-05-22T20:10:00.291Z,17.09
2023-05-22T20:14:03.752Z,17.11
2023-05-22T20:18:08.517Z,17.10
2023-05-22T20:22:27.728Z,17.08
2023-05-22T20:26:30.471Z,17.04
2023-05-22T20:30:33.278Z,16.94
2023-05-22T20:34:36.554Z,16.84
2023-05-22T20:38:42.548Z,16.73
2023-05-22T20:42:46.193Z,16.65
2023-05-22T20:46:55.071Z,16.56
2023-05-22T20:50:57.857Z,16.44
2023-05-22T20:55:00.788Z,16.28
2023-05-22T20:59:03.612Z,16.17
2023-05-22T21:03:14.475Z,16.04
2023-05-22T21:07:18.214Z,15.98
2023-05-22T21:11:21.015Z,15.98
2023-05-22T21:15:23.779Z,15.94
2023-05-22T21:19:26.680Z,15.84
2023-05-22T21:23:29.491Z,15.67
2023-05-22T21:27:32.428Z,15.50
2023-05-22T21:31:35.811Z,15.37
2023-05-22T21:35:39.161Z,15.31
2023-05-22T21:39:41.917Z,15.26
2023-05-22T21:43:47.314Z,15.19
2023-05-22T21:47:50.189Z,15.03
2023-05-22T21:51:53.567Z,14.91
2023-05-22T21:55:56.686Z,14.88
2023-05-22T21:59:59.506Z,14.89
2023-05-22T22:04:02.385Z,14.88
2023-05-22T22:08:05.993Z,14.83
2023-05-22T22:12:08.862Z,14.78
2023-05-22T22:16:13.895Z,14.75
2023-05-22T22:20:18.661Z,14.69
2023-05-22T22:24:23.337Z,14.59
2023-05-22T22:28:26.420Z,14.45
2023-05-22T22:32:29.199Z,14.31
2023-05-22T22:36:33.133Z,14.13
2023-05-22T22:40:35.874Z,14.01
2023-05-22T22:45:34.019Z,13.99
2023-05-22T22:49:37.402Z,14.04
2023-05-22T22:53:42.437Z,14.08
2023-05-22T22:57:49.844Z,13.98
2023-05-22T23:01:53.092Z,13.91
2023-05-22T23:05:56.297Z,13.83
2023-05-22T23:10:03.724Z,13.77
2023-05-22T23:14:08.588Z,13.69
2023-05-22T23:18:17.383Z,13.68
2023-05-22T23:22:20.259Z,13.68
2023-05-22T23:26:23.046Z,13.73
2023-05-22T23:30:26.498Z,13.78
2023-05-22T23:34:29.229Z,13.81
2023-05-22T23:38:51.178Z,13.86
2023-05-22T23:42:53.915Z,13.93
2023-05-22T23:46:57.039Z,14.04
2023-05-22T23:51:29.382Z,14.03
2023-05-22T23:55:32.142Z,13.95
2023-05-22T23:59:40.546Z,13.99
